sensor_id;sensor_type;location;lat;lon;timestamp;P1;durP1;ratioP1;P2;durP2;ratioP2
3949;SDS011;53057;50.988;6.314;2022-10-17T00:02:10;18.90;;;11.10;;
3949;SDS011;53057;50.988;6.314;2022-10-17T00:04:37;14.63;;;11.33;;
3949;SDS011;53057;50.988;6.314;2022-10-17T00:07:03;22.23;;;12.10;;
3949;SDS011;53057;50.988;6.314;2022-10-17T00:09:30;19.33;;;12.83;;
3949;SDS011;53057;50.988;6.314;2022-10-17T00:11:57;14.50;;;11.63;;
3949;SDS011;53057;50.988;6.314;2022-10-17T00:14:23;14.97;;;11.60;;
3949;SDS011;53057;50.988;6.314;2022-10-17T00:16:50;16.37;;;12.60;;
3949;SDS011;53057;50.988;6.314;2022-10-17T00:19:16;18.33;;;12.40;;
3949;SDS011;53057;50.988;6.314;2022-10-17T00:21:43;15.30;;;11.53;;
3949;SDS011;53057;50.988;6.314;2022-10-17T00:24:09;18.67;;;11.60;;
3949;SDS011;53057;50.988;6.314;2022-10-17T00:26:36;20.37;;;10.80;;
3949;SDS011;53057;50.988;6.314;2022-10-17T00:29:02;15.77;;;11.10;;
3949;SDS011;53057;50.988;6.314;2022-10-17T00:31:29;14.63;;;11.77;;
3949;SDS011;53057;50.988;6.314;2022-10-17T00:33:56;15.70;;;12.57;;
3949;SDS011;53057;50.988;6.314;2022-10-17T00:36:23;14.83;;;12.13;;
3949;SDS011;53057;50.988;6.314;2022-10-17T00:38:54;15.77;;;12.10;;
3949;SDS011;53057;50.988;6.314;2022-10-17T00:41:23;20.20;;;12.37;;
3949;SDS011;53057;50.988;6.314;2022-10-17T00:44:00;16.93;;;12.97;;
3949;SDS011;53057;50.988;6.314;2022-10-17T00:46:36;15.97;;;13.50;;
3949;SDS011;53057;50.988;6.314;2022-10-17T00:49:07;18.97;;;12.73;;
3949;SDS011;53057;50.988;6.314;2022-10-17T00:51:45;16.57;;;13.10;;
3949;SDS011;53057;50.988;6.314;2022-10-17T00:54:13;32.10;;;15.10;;
3949;SDS011;53057;50.988;6.314;2022-10-17T00:56:40;18.50;;;14.63;;
3949;SDS011;53057;50.988;6.314;2022-10-17T00:59:09;17.60;;;13.10;;
3949;SDS011;53057;50.988;6.314;2022-10-17T01:01:38;22.30;;;13.97;;
3949;SDS011;53057;50.988;6.314;2022-10-17T01:04:05;19.23;;;13.47;;
3949;SDS011;53057;50.988;6.314;2022-10-17T01:06:32;16.93;;;13.67;;
3949;SDS011;53057;50.988;6.314;2022-10-17T01:08:59;17.23;;;13.60;;
3949;SDS011;53057;50.988;6.314;2022-10-17T01:11:29;17.03;;;12.27;;
3949;SDS011;53057;50.988;6.314;2022-10-17T01:14:03;23.13;;;12.77;;
3949;SDS011;53057;50.988;6.314;2022-10-17T01:16:41;22.10;;;13.33;;
3949;SDS011;53057;50.988;6.314;2022-10-17T01:19:32;20.63;;;11.50;;
3949;SDS011;53057;50.988;6.314;2022-10-17T01:24:32;14.80;;;12.03;;
3949;SDS011;53057;50.988;6.314;2022-10-17T01:30:12;21.13;;;13.50;;
3949;SDS011;53057;50.988;6.314;2022-10-17T01:32:53;18.13;;;12.10;;
3949;SDS011;53057;50.988;6.314;2022-10-17T01:35:32;15.30;;;12.50;;
3949;SDS011;53057;50.988;6.314;2022-10-17T01:38:08;13.57;;;11.33;;
3949;SDS011;53057;50.988;6.314;2022-10-17T01:40:37;14.33;;;11.80;;
3949;SDS011;53057;50.988;6.314;2022-10-17T01:43:06;17.50;;;12.30;;
3949;SDS011;53057;50.988;6.314;2022-10-17T01:45:37;15.07;;;11.27;;
3949;SDS011;53057;50.988;6.314;2022-10-17T01:48:11;14.07;;;11.57;;
3949;SDS011;53057;50.988;6.314;2022-10-17T01:50:44;12.70;;;11.40;;
3949;SDS011;53057;50.988;6.314;2022-10-17T01:53:14;17.50;;;11.00;;
3949;SDS011;53057;50.988;6.314;2022-10-17T01:55:42;15.23;;;11.97;;
3949;SDS011;53057;50.988;6.314;2022-10-17T01:58:11;15.60;;;10.70;;
3949;SDS011;53057;50.988;6.314;2022-10-17T02:00:39;19.70;;;11.30;;
3949;SDS011;53057;50.988;6.314;2022-10-17T02:03:08;20.83;;;11.07;;
3949;SDS011;53057;50.988;6.314;2022-10-17T02:05:37;23.13;;;11.87;;
3949;SDS011;53057;50.988;6.314;2022-10-17T02:08:04;15.60;;;10.77;;
3949;SDS011;53057;50.988;6.314;2022-10-17T02:10:34;15.10;;;10.83;;
3949;SDS011;53057;50.988;6.314;2022-10-17T02:13:18;16.47;;;11.93;;
3949;SDS011;53057;50.988;6.314;2022-10-17T02:15:58;14.97;;;11.47;;
3949;SDS011;53057;50.988;6.314;2022-10-17T02:21:06;18.83;;;12.40;;
3949;SDS011;53057;50.988;6.314;2022-10-17T02:23:44;26.07;;;12.70;;
3949;SDS011;53057;50.988;6.314;2022-10-17T02:26:31;17.60;;;10.70;;
3949;SDS011;53057;50.988;6.314;2022-10-17T02:29:12;17.10;;;12.30;;
3949;SDS011;53057;50.988;6.314;2022-10-17T02:31:44;21.00;;;11.23;;
3949;SDS011;53057;50.988;6.314;2022-10-17T02:34:14;22.30;;;11.80;;
3949;SDS011;53057;50.988;6.314;2022-10-17T02:36:50;18.23;;;11.60;;
3949;SDS011;53057;50.988;6.314;2022-10-17T02:39:18;11.10;;;9.93;;
3949;SDS011;53057;50.988;6.314;2022-10-17T02:41:46;19.07;;;10.47;;
3949;SDS011;53057;50.988;6.314;2022-10-17T02:44:13;16.17;;;11.83;;
3949;SDS011;53057;50.988;6.314;2022-10-17T02:46:42;20.67;;;12.70;;
3949;SDS011;53057;50.988;6.314;2022-10-17T02:49:17;15.63;;;11.40;;
3949;SDS011;53057;50.988;6.314;2022-10-17T02:56:45;17.97;;;12.70;;
3949;SDS011;53057;50.988;6.314;2022-10-17T02:59:13;13.40;;;11.90;;
3949;SDS011;53057;50.988;6.314;2022-10-17T03:01:41;14.77;;;11.30;;
3949;SDS011;53057;50.988;6.314;2022-10-17T03:04:12;19.70;;;12.40;;
3949;SDS011;53057;50.988;6.314;2022-10-17T03:06:41;13.53;;;9.97;;
3949;SDS011;53057;50.988;6.314;2022-10-17T03:09:07;18.97;;;11.50;;
3949;SDS011;53057;50.988;6.314;2022-10-17T03:11:34;17.10;;;11.90;;
3949;SDS011;53057;50.988;6.314;2022-10-17T03:14:01;16.20;;;13.37;;
3949;SDS011;53057;50.988;6.314;2022-10-17T03:16:27;15.30;;;12.60;;
3949;SDS011;53057;50.988;6.314;2022-10-17T03:18:54;12.93;;;11.63;;
3949;SDS011;53057;50.988;6.314;2022-10-17T03:21:21;16.60;;;10.80;;
3949;SDS011;53057;50.988;6.314;2022-10-17T03:23:48;12.73;;;10.63;;
3949;SDS011;53057;50.988;6.314;2022-10-17T03:26:16;13.23;;;11.83;;
3949;SDS011;53057;50.988;6.314;2022-10-17T03:28:43;15.33;;;11.27;;
3949;SDS011;53057;50.988;6.314;2022-10-17T03:31:11;25.40;;;12.17;;
3949;SDS011;53057;50.988;6.314;2022-10-17T03:33:38;12.67;;;10.50;;
3949;SDS011;53057;50.988;6.314;2022-10-17T03:36:07;23.73;;;12.77;;
3949;SDS011;53057;50.988;6.314;2022-10-17T03:38:33;16.57;;;12.23;;
3949;SDS011;53057;50.988;6.314;2022-10-17T03:41:01;13.83;;;11.53;;
3949;SDS011;53057;50.988;6.314;2022-10-17T03:43:28;20.63;;;10.93;;
3949;SDS011;53057;50.988;6.314;2022-10-17T03:45:58;18.60;;;10.40;;
3949;SDS011;53057;50.988;6.314;2022-10-17T03:48:25;18.37;;;9.90;;
3949;SDS011;53057;50.988;6.314;2022-10-17T03:50:57;13.70;;;8.60;;
3949;SDS011;53057;50.988;6.314;2022-10-17T03:53:23;15.87;;;9.97;;
3949;SDS011;53057;50.988;6.314;2022-10-17T03:55:50;13.80;;;9.60;;
3949;SDS011;53057;50.988;6.314;2022-10-17T03:58:17;12.10;;;10.63;;
3949;SDS011;53057;50.988;6.314;2022-10-17T04:00:43;19.00;;;11.70;;
3949;SDS011;53057;50.988;6.314;2022-10-17T04:03:10;18.30;;;10.03;;
3949;SDS011;53057;50.988;6.314;2022-10-17T04:05:42;15.07;;;11.00;;
3949;SDS011;53057;50.988;6.314;2022-10-17T04:08:09;13.93;;;10.23;;
3949;SDS011;53057;50.988;6.314;2022-10-17T04:11:03;19.17;;;10.37;;
3949;SDS011;53057;50.988;6.314;2022-10-17T04:13:31;17.07;;;10.63;;
3949;SDS011;53057;50.988;6.314;2022-10-17T04:16:05;12.57;;;10.37;;
3949;SDS011;53057;50.988;6.314;2022-10-17T04:18:36;20.67;;;10.03;;
3949;SDS011;53057;50.988;6.314;2022-10-17T04:21:03;20.80;;;10.57;;
3949;SDS011;53057;50.988;6.314;2022-10-17T04:23:31;11.70;;;9.43;;
3949;SDS011;53057;50.988;6.314;2022-10-17T04:26:04;12.47;;;10.10;;
3949;SDS011;53057;50.988;6.314;2022-10-17T04:28:32;12.73;;;10.23;;
3949;SDS011;53057;50.988;6.314;2022-10-17T04:30:59;12.33;;;10.20;;
3949;SDS011;53057;50.988;6.314;2022-10-17T04:33:31;11.63;;;9.13;;
3949;SDS011;53057;50.988;6.314;2022-10-17T04:38:25;13.30;;;9.70;;
3949;SDS011;53057;50.988;6.314;2022-10-17T04:41:01;11.33;;;9.30;;
3949;SDS011;53057;50.988;6.314;2022-10-17T04:43:29;23.47;;;8.63;;
3949;SDS011;53057;50.988;6.314;2022-10-17T04:45:57;11.20;;;8.33;;
3949;SDS011;53057;50.988;6.314;2022-10-17T04:48:23;8.57;;;7.63;;
3949;SDS011;53057;50.988;6.314;2022-10-17T04:50:57;7.87;;;7.07;;
3949;SDS011;53057;50.988;6.314;2022-10-17T04:53:35;7.53;;;6.67;;
3949;SDS011;53057;50.988;6.314;2022-10-17T04:56:19;10.50;;;6.60;;
3949;SDS011;53057;50.988;6.314;2022-10-17T04:58:46;10.40;;;6.83;;
3949;SDS011;53057;50.988;6.314;2022-10-17T05:01:15;9.10;;;6.97;;
3949;SDS011;53057;50.988;6.314;2022-10-17T05:03:44;11.07;;;6.90;;
3949;SDS011;53057;50.988;6.314;2022-10-17T05:06:12;10.23;;;6.63;;
3949;SDS011;53057;50.988;6.314;2022-10-17T05:08:41;11.60;;;6.50;;
3949;SDS011;53057;50.988;6.314;2022-10-17T05:11:15;13.67;;;6.93;;
3949;SDS011;53057;50.988;6.314;2022-10-17T05:13:42;7.03;;;6.33;;
3949;SDS011;53057;50.988;6.314;2022-10-17T05:16:09;51.80;;;7.63;;
3949;SDS011;53057;50.988;6.314;2022-10-17T05:18:36;9.60;;;5.87;;
3949;SDS011;53057;50.988;6.314;2022-10-17T05:21:03;13.63;;;6.07;;
3949;SDS011;53057;50.988;6.314;2022-10-17T05:23:29;12.90;;;6.73;;
3949;SDS011;53057;50.988;6.314;2022-10-17T05:25:57;9.27;;;7.57;;
3949;SDS011;53057;50.988;6.314;2022-10-17T05:28:25;12.97;;;7.00;;
3949;SDS011;53057;50.988;6.314;2022-10-17T05:30:55;14.93;;;6.60;;
3949;SDS011;53057;50.988;6.314;2022-10-17T05:33:22;11.50;;;7.57;;
3949;SDS011;53057;50.988;6.314;2022-10-17T05:35:50;11.30;;;8.60;;
3949;SDS011;53057;50.988;6.314;2022-10-17T05:38:16;10.37;;;7.50;;
3949;SDS011;53057;50.988;6.314;2022-10-17T05:40:46;9.67;;;7.50;;
3949;SDS011;53057;50.988;6.314;2022-10-17T05:43:13;10.00;;;8.67;;
3949;SDS011;53057;50.988;6.314;2022-10-17T05:45:41;14.73;;;7.43;;
3949;SDS011;53057;50.988;6.314;2022-10-17T05:48:12;8.10;;;7.30;;
3949;SDS011;53057;50.988;6.314;2022-10-17T05:50:39;10.77;;;7.53;;
3949;SDS011;53057;50.988;6.314;2022-10-17T05:53:10;7.63;;;6.93;;
3949;SDS011;53057;50.988;6.314;2022-10-17T05:55:42;17.13;;;7.43;;
3949;SDS011;53057;50.988;6.314;2022-10-17T05:58:08;9.87;;;7.40;;
3949;SDS011;53057;50.988;6.314;2022-10-17T06:00:49;12.53;;;7.53;;
3949;SDS011;53057;50.988;6.314;2022-10-17T06:03:15;9.27;;;8.10;;
3949;SDS011;53057;50.988;6.314;2022-10-17T06:05:42;18.73;;;9.50;;
3949;SDS011;53057;50.988;6.314;2022-10-17T06:08:08;12.63;;;8.43;;
3949;SDS011;53057;50.988;6.314;2022-10-17T06:10:35;14.13;;;8.33;;
3949;SDS011;53057;50.988;6.314;2022-10-17T06:13:02;15.63;;;8.23;;
3949;SDS011;53057;50.988;6.314;2022-10-17T06:15:29;14.47;;;9.33;;
3949;SDS011;53057;50.988;6.314;2022-10-17T06:18:00;15.93;;;7.80;;
3949;SDS011;53057;50.988;6.314;2022-10-17T06:20:28;13.03;;;7.50;;
3949;SDS011;53057;50.988;6.314;2022-10-17T06:22:54;9.30;;;7.37;;
3949;SDS011;53057;50.988;6.314;2022-10-17T06:25:56;11.23;;;7.63;;
3949;SDS011;53057;50.988;6.314;2022-10-17T06:28:23;9.33;;;6.97;;
3949;SDS011;53057;50.988;6.314;2022-10-17T06:30:50;7.50;;;6.80;;
3949;SDS011;53057;50.988;6.314;2022-10-17T06:33:17;13.67;;;7.60;;
3949;SDS011;53057;50.988;6.314;2022-10-17T06:35:49;13.17;;;5.73;;
3949;SDS011;53057;50.988;6.314;2022-10-17T06:38:16;11.03;;;7.20;;
3949;SDS011;53057;50.988;6.314;2022-10-17T06:40:43;19.30;;;7.30;;
3949;SDS011;53057;50.988;6.314;2022-10-17T06:43:09;7.70;;;6.33;;
3949;SDS011;53057;50.988;6.314;2022-10-17T06:46:01;10.67;;;7.43;;
3949;SDS011;53057;50.988;6.314;2022-10-17T06:48:31;8.00;;;6.47;;
3949;SDS011;53057;50.988;6.314;2022-10-17T06:51:27;6.30;;;5.70;;
3949;SDS011;53057;50.988;6.314;2022-10-17T06:53:57;17.13;;;6.57;;
3949;SDS011;53057;50.988;6.314;2022-10-17T06:56:42;10.70;;;7.13;;
3949;SDS011;53057;50.988;6.314;2022-10-17T06:59:28;10.40;;;5.47;;
3949;SDS011;53057;50.988;6.314;2022-10-17T07:02:00;27.07;;;6.87;;
3949;SDS011;53057;50.988;6.314;2022-10-17T07:04:27;6.20;;;5.57;;
3949;SDS011;53057;50.988;6.314;2022-10-17T07:06:54;8.63;;;5.90;;
3949;SDS011;53057;50.988;6.314;2022-10-17T07:09:24;7.13;;;6.20;;
3949;SDS011;53057;50.988;6.314;2022-10-17T07:11:53;11.17;;;5.70;;
3949;SDS011;53057;50.988;6.314;2022-10-17T07:14:19;7.53;;;5.63;;
3949;SDS011;53057;50.988;6.314;2022-10-17T07:16:47;13.63;;;6.47;;
3949;SDS011;53057;50.988;6.314;2022-10-17T07:19:17;8.43;;;5.57;;
3949;SDS011;53057;50.988;6.314;2022-10-17T07:21:43;9.60;;;5.13;;
3949;SDS011;53057;50.988;6.314;2022-10-17T07:24:11;7.23;;;5.27;;
3949;SDS011;53057;50.988;6.314;2022-10-17T07:26:40;6.90;;;5.80;;
3949;SDS011;53057;50.988;6.314;2022-10-17T07:29:08;11.13;;;6.93;;
3949;SDS011;53057;50.988;6.314;2022-10-17T07:31:53;9.90;;;7.10;;
3949;SDS011;53057;50.988;6.314;2022-10-17T07:34:21;99.40;;;34.67;;
3949;SDS011;53057;50.988;6.314;2022-10-17T07:36:48;9.57;;;7.23;;
3949;SDS011;53057;50.988;6.314;2022-10-17T07:39:15;11.00;;;7.07;;
3949;SDS011;53057;50.988;6.314;2022-10-17T07:41:42;15.80;;;7.53;;
3949;SDS011;53057;50.988;6.314;2022-10-17T07:44:09;11.40;;;8.00;;
3949;SDS011;53057;50.988;6.314;2022-10-17T07:46:42;9.30;;;7.17;;
3949;SDS011;53057;50.988;6.314;2022-10-17T07:49:09;14.70;;;8.20;;
3949;SDS011;53057;50.988;6.314;2022-10-17T07:51:36;11.83;;;7.37;;
3949;SDS011;53057;50.988;6.314;2022-10-17T07:54:03;11.63;;;6.70;;
3949;SDS011;53057;50.988;6.314;2022-10-17T07:56:30;10.80;;;6.60;;
3949;SDS011;53057;50.988;6.314;2022-10-17T07:58:57;10.17;;;7.00;;
3949;SDS011;53057;50.988;6.314;2022-10-17T08:01:26;11.20;;;6.97;;
3949;SDS011;53057;50.988;6.314;2022-10-17T08:03:53;8.90;;;7.53;;
3949;SDS011;53057;50.988;6.314;2022-10-17T08:06:20;11.90;;;7.07;;
3949;SDS011;53057;50.988;6.314;2022-10-17T08:08:46;8.93;;;7.03;;
3949;SDS011;53057;50.988;6.314;2022-10-17T08:11:13;14.30;;;6.40;;
3949;SDS011;53057;50.988;6.314;2022-10-17T08:13:40;10.80;;;6.97;;
3949;SDS011;53057;50.988;6.314;2022-10-17T08:16:08;11.37;;;6.80;;
3949;SDS011;53057;50.988;6.314;2022-10-17T08:18:35;18.33;;;8.07;;
3949;SDS011;53057;50.988;6.314;2022-10-17T08:21:03;31.73;;;7.73;;
3949;SDS011;53057;50.988;6.314;2022-10-17T08:23:31;17.97;;;7.07;;
3949;SDS011;53057;50.988;6.314;2022-10-17T08:25:58;14.23;;;6.40;;
3949;SDS011;53057;50.988;6.314;2022-10-17T08:28:26;10.80;;;6.73;;
3949;SDS011;53057;50.988;6.314;2022-10-17T08:30:53;10.93;;;6.40;;
3949;SDS011;53057;50.988;6.314;2022-10-17T08:33:19;8.80;;;6.33;;
3949;SDS011;53057;50.988;6.314;2022-10-17T08:35:46;13.97;;;6.07;;
3949;SDS011;53057;50.988;6.314;2022-10-17T08:38:12;18.13;;;6.03;;
3949;SDS011;53057;50.988;6.314;2022-10-17T08:40:40;16.13;;;5.40;;
3949;SDS011;53057;50.988;6.314;2022-10-17T08:43:12;9.43;;;5.77;;
3949;SDS011;53057;50.988;6.314;2022-10-17T08:45:45;11.63;;;5.10;;
3949;SDS011;53057;50.988;6.314;2022-10-17T08:48:15;10.23;;;4.50;;
3949;SDS011;53057;50.988;6.314;2022-10-17T08:50:44;13.70;;;4.40;;
3949;SDS011;53057;50.988;6.314;2022-10-17T08:53:14;13.13;;;5.13;;
3949;SDS011;53057;50.988;6.314;2022-10-17T08:55:44;8.00;;;3.73;;
3949;SDS011;53057;50.988;6.314;2022-10-17T08:58:24;9.97;;;4.40;;
3949;SDS011;53057;50.988;6.314;2022-10-17T09:03:28;12.80;;;5.20;;
3949;SDS011;53057;50.988;6.314;2022-10-17T09:06:11;5.10;;;4.27;;
3949;SDS011;53057;50.988;6.314;2022-10-17T09:08:46;8.10;;;4.83;;
3949;SDS011;53057;50.988;6.314;2022-10-17T09:21:49;14.93;;;5.17;;
3949;SDS011;53057;50.988;6.314;2022-10-17T09:24:26;8.00;;;4.40;;
3949;SDS011;53057;50.988;6.314;2022-10-17T09:26:53;5.90;;;3.70;;
3949;SDS011;53057;50.988;6.314;2022-10-17T09:29:23;8.23;;;4.60;;
3949;SDS011;53057;50.988;6.314;2022-10-17T09:31:57;6.70;;;4.60;;
3949;SDS011;53057;50.988;6.314;2022-10-17T09:34:26;11.60;;;5.10;;
3949;SDS011;53057;50.988;6.314;2022-10-17T09:36:53;8.40;;;4.20;;
3949;SDS011;53057;50.988;6.314;2022-10-17T09:39:22;14.50;;;4.17;;
3949;SDS011;53057;50.988;6.314;2022-10-17T09:41:53;5.07;;;4.00;;
3949;SDS011;53057;50.988;6.314;2022-10-17T09:44:22;6.70;;;4.97;;
3949;SDS011;53057;50.988;6.314;2022-10-17T09:46:58;9.30;;;5.00;;
3949;SDS011;53057;50.988;6.314;2022-10-17T09:49:40;7.70;;;4.77;;
3949;SDS011;53057;50.988;6.314;2022-10-17T09:52:49;9.43;;;3.80;;
3949;SDS011;53057;50.988;6.314;2022-10-17T09:55:02;6.50;;;3.33;;
3949;SDS011;53057;50.988;6.314;2022-10-17T09:57:30;6.60;;;4.07;;
3949;SDS011;53057;50.988;6.314;2022-10-17T10:00:23;6.43;;;4.00;;
3949;SDS011;53057;50.988;6.314;2022-10-17T10:02:53;8.33;;;4.67;;
3949;SDS011;53057;50.988;6.314;2022-10-17T10:05:33;11.63;;;4.90;;
3949;SDS011;53057;50.988;6.314;2022-10-17T10:08:01;6.40;;;3.90;;
3949;SDS011;53057;50.988;6.314;2022-10-17T10:10:28;12.10;;;5.80;;
3949;SDS011;53057;50.988;6.314;2022-10-17T10:15:32;5.93;;;3.80;;
3949;SDS011;53057;50.988;6.314;2022-10-17T10:17:59;9.63;;;5.17;;
3949;SDS011;53057;50.988;6.314;2022-10-17T10:20:31;9.63;;;5.20;;
3949;SDS011;53057;50.988;6.314;2022-10-17T10:23:10;6.43;;;4.10;;
3949;SDS011;53057;50.988;6.314;2022-10-17T10:25:38;13.53;;;4.87;;
3949;SDS011;53057;50.988;6.314;2022-10-17T10:28:14;10.50;;;4.00;;
3949;SDS011;53057;50.988;6.314;2022-10-17T10:30:44;17.27;;;4.50;;
3949;SDS011;53057;50.988;6.314;2022-10-17T10:33:29;6.47;;;4.00;;
3949;SDS011;53057;50.988;6.314;2022-10-17T10:35:58;12.13;;;4.17;;
3949;SDS011;53057;50.988;6.314;2022-10-17T10:38:27;7.77;;;3.50;;
3949;SDS011;53057;50.988;6.314;2022-10-17T10:40:55;17.00;;;14.47;;
3949;SDS011;53057;50.988;6.314;2022-10-17T10:43:30;8.90;;;5.20;;
3949;SDS011;53057;50.988;6.314;2022-10-17T10:45:57;10.83;;;4.57;;
3949;SDS011;53057;50.988;6.314;2022-10-17T10:48:32;9.40;;;4.17;;
3949;SDS011;53057;50.988;6.314;2022-10-17T10:51:01;7.87;;;5.53;;
3949;SDS011;53057;50.988;6.314;2022-10-17T10:58:36;22.10;;;15.57;;
3949;SDS011;53057;50.988;6.314;2022-10-17T11:01:11;21.30;;;13.73;;
3949;SDS011;53057;50.988;6.314;2022-10-17T11:03:52;11.00;;;8.20;;
3949;SDS011;53057;50.988;6.314;2022-10-17T11:06:25;10.63;;;5.57;;
3949;SDS011;53057;50.988;6.314;2022-10-17T11:09:05;17.23;;;9.73;;
3949;SDS011;53057;50.988;6.314;2022-10-17T11:11:38;12.17;;;7.63;;
3949;SDS011;53057;50.988;6.314;2022-10-17T11:14:17;10.27;;;6.53;;
3949;SDS011;53057;50.988;6.314;2022-10-17T11:19:25;11.40;;;4.93;;
3949;SDS011;53057;50.988;6.314;2022-10-17T11:24:41;18.40;;;4.40;;
3949;SDS011;53057;50.988;6.314;2022-10-17T11:27:08;8.63;;;4.30;;
3949;SDS011;53057;50.988;6.314;2022-10-17T11:29:38;5.60;;;4.77;;
3949;SDS011;53057;50.988;6.314;2022-10-17T11:32:07;7.60;;;4.40;;
3949;SDS011;53057;50.988;6.314;2022-10-17T11:34:40;5.03;;;3.70;;
3949;SDS011;53057;50.988;6.314;2022-10-17T11:37:12;9.40;;;5.30;;
3949;SDS011;53057;50.988;6.314;2022-10-17T11:39:48;7.43;;;4.30;;
3949;SDS011;53057;50.988;6.314;2022-10-17T11:44:51;6.57;;;4.30;;
3949;SDS011;53057;50.988;6.314;2022-10-17T11:49:51;8.93;;;4.83;;
3949;SDS011;53057;50.988;6.314;2022-10-17T11:55:10;8.20;;;4.70;;
3949;SDS011;53057;50.988;6.314;2022-10-17T11:57:45;6.13;;;3.60;;
3949;SDS011;53057;50.988;6.314;2022-10-17T12:05:21;14.53;;;3.73;;
3949;SDS011;53057;50.988;6.314;2022-10-17T12:07:57;16.43;;;4.47;;
3949;SDS011;53057;50.988;6.314;2022-10-17T12:12:54;4.00;;;3.37;;
3949;SDS011;53057;50.988;6.314;2022-10-17T12:17:58;11.70;;;4.30;;
3949;SDS011;53057;50.988;6.314;2022-10-17T12:20:29;8.10;;;3.10;;
3949;SDS011;53057;50.988;6.314;2022-10-17T12:25:30;11.20;;;3.90;;
3949;SDS011;53057;50.988;6.314;2022-10-17T12:28:42;8.20;;;2.90;;
3949;SDS011;53057;50.988;6.314;2022-10-17T12:33:19;16.43;;;3.20;;
3949;SDS011;53057;50.988;6.314;2022-10-17T12:35:49;8.43;;;3.80;;
3949;SDS011;53057;50.988;6.314;2022-10-17T12:45:48;8.90;;;2.97;;
3949;SDS011;53057;50.988;6.314;2022-10-17T12:51:19;6.03;;;2.97;;
3949;SDS011;53057;50.988;6.314;2022-10-17T12:54:07;8.17;;;3.43;;
3949;SDS011;53057;50.988;6.314;2022-10-17T12:59:00;7.90;;;3.60;;
3949;SDS011;53057;50.988;6.314;2022-10-17T13:01:31;10.53;;;3.03;;
3949;SDS011;53057;50.988;6.314;2022-10-17T13:03:59;9.10;;;3.87;;
3949;SDS011;53057;50.988;6.314;2022-10-17T13:06:34;8.33;;;3.73;;
3949;SDS011;53057;50.988;6.314;2022-10-17T13:09:04;8.63;;;4.37;;
3949;SDS011;53057;50.988;6.314;2022-10-17T13:11:32;12.07;;;4.43;;
3949;SDS011;53057;50.988;6.314;2022-10-17T13:14:00;8.00;;;4.13;;
3949;SDS011;53057;50.988;6.314;2022-10-17T13:16:35;17.60;;;4.00;;
3949;SDS011;53057;50.988;6.314;2022-10-17T13:19:09;6.07;;;3.77;;
3949;SDS011;53057;50.988;6.314;2022-10-17T13:21:37;8.17;;;3.90;;
3949;SDS011;53057;50.988;6.314;2022-10-17T13:24:20;15.77;;;4.10;;
3949;SDS011;53057;50.988;6.314;2022-10-17T13:26:47;8.00;;;4.20;;
3949;SDS011;53057;50.988;6.314;2022-10-17T13:29:14;8.10;;;4.03;;
3949;SDS011;53057;50.988;6.314;2022-10-17T13:31:41;11.47;;;3.00;;
3949;SDS011;53057;50.988;6.314;2022-10-17T13:34:16;5.60;;;3.70;;
3949;SDS011;53057;50.988;6.314;2022-10-17T13:36:43;5.93;;;3.27;;
3949;SDS011;53057;50.988;6.314;2022-10-17T13:39:16;10.53;;;3.60;;
3949;SDS011;53057;50.988;6.314;2022-10-17T13:41:57;23.30;;;4.70;;
3949;SDS011;53057;50.988;6.314;2022-10-17T13:44:25;6.70;;;3.50;;
3949;SDS011;53057;50.988;6.314;2022-10-17T13:46:53;17.70;;;4.70;;
3949;SDS011;53057;50.988;6.314;2022-10-17T13:49:26;11.60;;;3.83;;
3949;SDS011;53057;50.988;6.314;2022-10-17T13:51:55;10.30;;;4.80;;
3949;SDS011;53057;50.988;6.314;2022-10-17T13:54:39;12.43;;;4.03;;
3949;SDS011;53057;50.988;6.314;2022-10-17T13:57:22;7.60;;;3.90;;
3949;SDS011;53057;50.988;6.314;2022-10-17T13:59:54;10.10;;;3.60;;
3949;SDS011;53057;50.988;6.314;2022-10-17T14:02:23;4.70;;;4.20;;
3949;SDS011;53057;50.988;6.314;2022-10-17T14:07:52;14.20;;;5.10;;
3949;SDS011;53057;50.988;6.314;2022-10-17T14:10:40;13.27;;;4.03;;
3949;SDS011;53057;50.988;6.314;2022-10-17T14:13:13;8.47;;;4.17;;
3949;SDS011;53057;50.988;6.314;2022-10-17T14:15:43;6.63;;;3.97;;
3949;SDS011;53057;50.988;6.314;2022-10-17T14:18:21;7.63;;;3.87;;
3949;SDS011;53057;50.988;6.314;2022-10-17T14:20:49;14.10;;;4.70;;
3949;SDS011;53057;50.988;6.314;2022-10-17T14:23:41;4.23;;;3.83;;
3949;SDS011;53057;50.988;6.314;2022-10-17T14:28:38;11.50;;;5.00;;
3949;SDS011;53057;50.988;6.314;2022-10-17T14:31:22;18.03;;;4.50;;
3949;SDS011;53057;50.988;6.314;2022-10-17T14:33:51;10.60;;;5.67;;
3949;SDS011;53057;50.988;6.314;2022-10-17T14:36:19;8.67;;;4.90;;
3949;SDS011;53057;50.988;6.314;2022-10-17T14:38:47;22.73;;;6.50;;
3949;SDS011;53057;50.988;6.314;2022-10-17T14:44:04;13.00;;;5.23;;
3949;SDS011;53057;50.988;6.314;2022-10-17T14:46:35;13.33;;;5.20;;
3949;SDS011;53057;50.988;6.314;2022-10-17T14:49:07;10.03;;;5.37;;
3949;SDS011;53057;50.988;6.314;2022-10-17T14:51:33;20.23;;;4.90;;
3949;SDS011;53057;50.988;6.314;2022-10-17T14:56:50;11.90;;;4.07;;
3949;SDS011;53057;50.988;6.314;2022-10-17T14:59:18;17.40;;;6.00;;
3949;SDS011;53057;50.988;6.314;2022-10-17T15:02:07;13.00;;;6.27;;
3949;SDS011;53057;50.988;6.314;2022-10-17T15:04:34;11.37;;;6.40;;
3949;SDS011;53057;50.988;6.314;2022-10-17T15:07:01;9.50;;;5.40;;
3949;SDS011;53057;50.988;6.314;2022-10-17T15:09:27;8.90;;;5.53;;
3949;SDS011;53057;50.988;6.314;2022-10-17T15:11:54;17.57;;;5.30;;
3949;SDS011;53057;50.988;6.314;2022-10-17T15:14:21;10.63;;;5.53;;
3949;SDS011;53057;50.988;6.314;2022-10-17T15:16:47;7.63;;;5.60;;
3949;SDS011;53057;50.988;6.314;2022-10-17T15:19:14;10.87;;;5.30;;
3949;SDS011;53057;50.988;6.314;2022-10-17T15:21:41;12.67;;;7.00;;
3949;SDS011;53057;50.988;6.314;2022-10-17T15:24:12;8.60;;;6.07;;
3949;SDS011;53057;50.988;6.314;2022-10-17T15:26:40;17.77;;;6.73;;
3949;SDS011;53057;50.988;6.314;2022-10-17T15:29:08;11.43;;;6.47;;
3949;SDS011;53057;50.988;6.314;2022-10-17T15:31:35;20.90;;;8.00;;
3949;SDS011;53057;50.988;6.314;2022-10-17T15:34:02;11.80;;;7.47;;
3949;SDS011;53057;50.988;6.314;2022-10-17T15:36:29;7.73;;;7.00;;
3949;SDS011;53057;50.988;6.314;2022-10-17T15:38:59;12.73;;;6.73;;
3949;SDS011;53057;50.988;6.314;2022-10-17T15:41:27;13.97;;;6.50;;
3949;SDS011;53057;50.988;6.314;2022-10-17T15:43:54;15.90;;;7.40;;
3949;SDS011;53057;50.988;6.314;2022-10-17T15:46:25;8.83;;;6.70;;
3949;SDS011;53057;50.988;6.314;2022-10-17T15:48:52;7.93;;;6.60;;
3949;SDS011;53057;50.988;6.314;2022-10-17T15:51:19;16.37;;;7.93;;
3949;SDS011;53057;50.988;6.314;2022-10-17T15:53:46;14.27;;;7.97;;
3949;SDS011;53057;50.988;6.314;2022-10-17T15:56:20;18.43;;;8.30;;
3949;SDS011;53057;50.988;6.314;2022-10-17T15:58:47;10.20;;;7.80;;
3949;SDS011;53057;50.988;6.314;2022-10-17T16:01:19;13.13;;;7.87;;
3949;SDS011;53057;50.988;6.314;2022-10-17T16:03:47;15.53;;;7.70;;
3949;SDS011;53057;50.988;6.314;2022-10-17T16:06:16;17.33;;;8.67;;
3949;SDS011;53057;50.988;6.314;2022-10-17T16:08:43;12.93;;;8.63;;
3949;SDS011;53057;50.988;6.314;2022-10-17T16:11:17;12.77;;;8.23;;
3949;SDS011;53057;50.988;6.314;2022-10-17T16:13:47;18.27;;;10.27;;
3949;SDS011;53057;50.988;6.314;2022-10-17T16:16:15;11.37;;;7.67;;
3949;SDS011;53057;50.988;6.314;2022-10-17T16:18:41;15.47;;;7.83;;
3949;SDS011;53057;50.988;6.314;2022-10-17T16:21:10;13.17;;;8.83;;
3949;SDS011;53057;50.988;6.314;2022-10-17T16:23:37;16.07;;;10.50;;
3949;SDS011;53057;50.988;6.314;2022-10-17T16:26:04;13.07;;;9.50;;
3949;SDS011;53057;50.988;6.314;2022-10-17T16:28:31;15.33;;;10.77;;
3949;SDS011;53057;50.988;6.314;2022-10-17T16:30:58;20.07;;;10.50;;
3949;SDS011;53057;50.988;6.314;2022-10-17T16:33:24;25.83;;;18.93;;
3949;SDS011;53057;50.988;6.314;2022-10-17T16:35:51;17.67;;;12.40;;
3949;SDS011;53057;50.988;6.314;2022-10-17T16:38:18;14.23;;;11.57;;